Wampum, Pennsylvania
Current Conditions -  °F | °C
As of 8:47 PM on Friday 24 Oct 2014 (Local Time) from KBVI Reporting Station
Clear Clear  
Wind Chill: 52°   Ceiling: Unl
Heat Index: 52°   Visibility: 10mi
Dew Point: 37°   Wind: 3mph
Humidity: 58%   Direction: 260°W
Pressure: 30.01"   Gusts: NA
Location:  40.89°N, 80.34°W
Report Text: KBVI 250047Z 26003KT 10SM CLR 11/03 A3001 RMK LAST
Loading
Personal Weather Stations






























Interactive Weather Map New forecast layout! Learn more

10-Day Weather Forecast

Advertisements
Track Severe Weather on mobile